メインページ
METAR-TAF:

METAR-TAF

空港 :

ドバイ, アラブ首長国連邦

ドバイ国際空港

緯度: 25-15-10N, 経度: 055-21-52E, 海抜: 8m

現時点の気象観測

当レポートは35分前の23:00(UTC)に作成
北/北東の風 3kt、からの間で変化する
気温 31°C
湿度 75%
気圧 1006 hPa
視程10km以上
1,500メートル以下は雲なし、積乱雲なし

METAR: OMDB 232300Z 03003KT 350V080 CAVOK 31/26 Q1006 NOSIG

時間: 03:35 (23:35 UTC)

予報

当レポートは6時間35分前の17:00(UTC)に作成
予報は23日の 18時(UTC)から 25日の 00時(UTC)まで有効
の風 5kt
視程10km以上
1,500メートル以下は雲なし、積乱雲なし
24日の 08時(UTC)から 24日の 10時(UTC)まで徐々に
北/北西の風 12kt
24日の 15時(UTC)から 24日の 17時(UTC)まで徐々に
の風 5kt

TAF: OMDB 231700Z 2318/2500 10005KT CAVOK BECMG 2408/2410 34012KT BECMG 2415/2417 09005KT

4,000以上の空港の気象観測と天気予報(METAR報とTAF報)

利用可能な観測所は地図上に黄色い丸と赤い丸で示す。

丸の上にカーソルを重ねると観測所名を参照できる。

次にクリックすると気象観測と天気予報を参照できる。

マップの切り替え:黒色「×」印の緑ボタンをクリックして拡大、「-」印の緑ボタンをクリックして縮小、緑色の三角印をクリックして隣りの地図に切り替え


METAR-TAF: